Time;durP1;ratioP1;P1;durP2;ratioP2;P2;SDS_P1;SDS_P2;PMS_P1;PMS_P2;Temp;Humidity;BMP_temperature;BMP_pressure;BME280_temperature;BME280_humidity;BME280_pressure;Samples;Min_cycle;Max_cycle;Signal;HPM_P1;HPM_P2
2023/03/13 00:01:38;;;;;;;5.47;3.63;;;;;;;1.06;65.25;94880.25;5140981;27;20224;-75
2023/03/13 00:04:05;;;;;;;2.38;1.55;;;;;;;1.06;65.62;94869.59;5140485;27;20599;-75
2023/03/13 00:06:34;;;;;;;2.60;1.88;;;;;;;1.02;67.35;94881.84;5150857;27;20201;-76
2023/03/13 00:09:04;;;;;;;3.10;2.15;;;;;;;0.99;66.37;94882.34;5137546;27;20667;-76
2023/03/13 00:11:31;;;;;;;3.97;2.33;;;;;;;0.96;66.84;94875.69;5145742;27;20215;-76
2023/03/13 00:14:00;;;;;;;4.55;2.30;;;;;;;0.99;66.50;94877.03;5144724;27;20212;-75
2023/03/13 00:16:28;;;;;;;2.45;2.08;;;;;;;0.92;67.02;94884.47;5141310;27;20315;-76
2023/03/13 00:18:55;;;;;;;5.22;2.30;;;;;;;0.91;67.18;94882.88;5141710;27;20200;-76
2023/03/13 00:21:23;;;;;;;5.28;2.47;;;;;;;0.84;67.00;94893.75;5137288;27;20265;-76
2023/03/13 00:23:51;;;;;;;2.38;1.60;;;;;;;0.90;65.80;94889.25;5150632;27;20196;-75
2023/03/13 00:26:20;;;;;;;4.28;2.03;;;;;;;0.93;65.89;94888.75;5136474;27;20216;-76
2023/03/13 00:28:49;;;;;;;2.55;2.00;;;;;;;0.87;66.66;94895.13;5146004;27;20723;-75
2023/03/13 00:31:18;;;;;;;1.60;1.42;;;;;;;0.90;65.56;94884.72;5136221;27;20253;-76
2023/03/13 00:33:46;;;;;;;3.00;1.80;;;;;;;0.98;65.28;94891.41;5150729;27;20281;-76
2023/03/13 00:36:15;;;;;;;6.90;4.28;;;;;;;1.03;64.83;94899.44;5136363;27;20715;-75
2023/03/13 00:38:43;;;;;;;6.93;4.20;;;;;;;0.95;65.38;94892.78;5139598;27;20224;-75
2023/03/13 00:41:12;;;;;;;4.07;1.73;;;;;;;0.90;66.27;94889.25;5147815;27;20260;-75
2023/03/13 00:43:41;;;;;;;2.15;1.83;;;;;;;0.94;65.46;94890.34;5150695;27;20285;-75
2023/03/13 00:46:08;;;;;;;2.20;1.63;;;;;;;1.04;65.02;94899.19;5150408;27;20204;-75
2023/03/13 00:48:35;;;;;;;3.83;2.40;;;;;;;1.04;64.83;94898.38;5138916;27;20257;-75
2023/03/13 00:51:03;;;;;;;2.58;1.98;;;;;;;1.05;64.79;94892.78;5148789;27;20257;-73
2023/03/13 00:53:30;;;;;;;4.15;2.70;;;;;;;0.99;65.13;94887.69;5151144;27;20239;-76
2023/03/13 00:55:59;;;;;;;4.88;2.30;;;;;;;0.97;64.59;94887.16;5137133;27;20201;-75
2023/03/13 00:58:27;;;;;;;5.40;2.47;;;;;;;0.90;65.86;94883.94;5138076;27;20252;-76
2023/03/13 01:00:56;;;;;;;3.00;2.25;;;;;;;0.85;66.12;94886.56;5144097;27;20261;-75
2023/03/13 01:03:25;;;;;;;2.80;2.10;;;;;;;0.84;65.57;94884.97;5129285;27;20208;-74
2023/03/13 01:05:56;;;;;;;3.40;2.30;;;;;;;0.89;64.99;94887.66;5143910;27;20711;-75
2023/03/13 01:08:23;;;;;;;3.72;2.33;;;;;;;0.79;65.90;94890.28;5144922;27;20240;-76
2023/03/13 01:10:50;;;;;;;3.65;1.98;;;;;;;0.78;65.42;94896.69;5150881;27;20248;-76
2023/03/13 01:13:16;;;;;;;6.18;4.18;;;;;;;0.74;65.58;94885.72;5150008;27;20578;-75
2023/03/13 01:15:43;;;;;;;5.57;3.75;;;;;;;0.74;66.18;94882.25;5137008;27;20650;-76
2023/03/13 01:18:14;;;;;;;6.65;4.20;;;;;;;0.75;67.27;94886.53;5149838;27;20583;-75
2023/03/13 01:20:41;;;;;;;3.03;2.15;;;;;;;0.70;66.93;94887.28;5137697;27;20719;-75
2023/03/13 01:23:08;;;;;;;1.80;1.30;;;;;;;0.75;67.76;94886.53;5136783;27;20245;-75
2023/03/13 01:25:36;;;;;;;4.97;1.55;;;;;;;0.82;67.34;94887.09;5150393;27;20220;-76
2023/03/13 01:28:03;;;;;;;2.78;2.28;;;;;;;0.73;67.86;94896.66;5150779;27;20200;-75
2023/03/13 01:30:30;;;;;;;3.05;1.73;;;;;;;0.69;69.19;94899.81;5150205;27;20279;-75
2023/03/13 01:32:57;;;;;;;3.25;1.50;;;;;;;0.79;70.07;94892.94;5136477;27;20232;-76
2023/03/13 01:35:25;;;;;;;3.88;2.33;;;;;;;0.88;69.72;94896.72;5140973;27;21195;-76
2023/03/13 01:37:52;;;;;;;4.03;2.33;;;;;;;0.87;68.81;94901.25;5146473;27;20263;-76
2023/03/13 01:40:18;;;;;;;2.80;2.03;;;;;;;0.81;70.36;94899.63;5150041;27;20241;-76
2023/03/13 01:42:53;;;;;;;1.98;1.77;;;;;;;0.81;70.54;94902.31;5136414;27;20244;-76
2023/03/13 01:45:57;;;;;;;4.97;2.33;;;;;;;0.69;71.06;94910.47;5150500;27;20196;-76
2023/03/13 01:48:29;;;;;;;5.80;1.92;;;;;;;0.69;70.37;94910.47;5129773;27;20610;-76
2023/03/13 01:50:59;;;;;;;3.55;2.42;;;;;;;0.60;70.76;94908.56;5143725;27;20197;-76
2023/03/13 01:53:28;;;;;;;3.42;1.80;;;;;;;0.66;71.17;94913.69;5141214;27;20312;-76
2023/03/13 01:55:56;;;;;;;6.05;2.20;;;;;;;0.58;71.80;94905.34;5145420;27;20197;-76
2023/03/13 01:58:23;;;;;;;5.10;2.50;;;;;;;0.49;71.68;94910.38;5130088;27;20217;-76
2023/03/13 02:00:50;;;;;;;3.97;2.75;;;;;;;0.42;71.18;94912.47;5144006;27;20269;-76
2023/03/13 02:03:20;;;;;;;4.18;2.40;;;;;;;0.31;73.00;94918.78;5141815;27;20786;-76
2023/03/13 02:05:49;;;;;;;4.60;3.10;;;;;;;0.39;73.51;94915.66;5135783;27;20204;-76
2023/03/13 02:08:21;;;;;;;3.55;2.45;;;;;;;0.50;73.16;94908.53;5136354;27;20688;-76
2023/03/13 02:10:53;;;;;;;5.57;2.47;;;;;;;0.55;73.43;94909.34;5137037;27;20244;-75
2023/03/13 02:13:20;;;;;;;5.10;2.42;;;;;;;0.48;73.86;94910.63;5140222;27;20262;-75
2023/03/13 02:15:48;;;;;;;4.57;2.85;;;;;;;0.43;73.95;94911.41;5154168;27;20212;-75
2023/03/13 02:18:15;;;;;;;3.90;2.53;;;;;;;0.51;72.04;94913.59;5153804;27;20327;-75
2023/03/13 02:20:42;;;;;;;3.05;2.13;;;;;;;0.46;72.84;94926.06;5154342;27;20200;-75
2023/03/13 02:23:18;;;;;;;9.52;5.10;;;;;;;0.34;74.59;94923.59;5151712;27;20254;-75
2023/03/13 02:25:49;;;;;;;7.35;4.75;;;;;;;0.26;74.45;94926.75;5143806;27;20215;-75
2023/03/13 02:28:19;;;;;;;9.90;4.60;;;;;;;0.30;73.87;94938.50;5153830;27;20650;-75
2023/03/13 02:30:48;;;;;;;6.57;4.35;;;;;;;0.26;75.16;94937.41;5154040;27;20278;-75
2023/03/13 02:33:18;;;;;;;3.25;2.00;;;;;;;0.25;76.14;94930.47;5139328;27;20280;-75
2023/03/13 02:35:46;;;;;;;4.20;2.33;;;;;;;0.21;76.09;94945.34;5140092;27;20276;-74
2023/03/13 02:38:18;;;;;;;3.10;1.75;;;;;;;0.25;76.02;94947.25;5146539;27;20248;-76
2023/03/13 02:40:49;;;;;;;4.03;1.95;;;;;;;0.22;76.24;94941.63;5146202;27;20208;-76
2023/03/13 02:43:18;;;;;;;4.50;2.83;;;;;;;0.21;76.76;94961.34;5140613;27;20188;-76
2023/03/13 02:46:01;;;;;;;5.47;3.03;;;;;;;0.20;76.42;94965.06;5139411;27;20201;-75
2023/03/13 02:48:33;;;;;;;5.38;2.20;;;;;;;0.15;76.74;94973.00;5143654;27;20242;-76
2023/03/13 02:51:02;;;;;;;4.72;2.97;;;;;;;0.24;77.40;94976.81;5146767;27;20296;-75
2023/03/13 02:53:29;;;;;;;2.47;1.95;;;;;;;0.36;76.86;94974.78;5144352;27;20284;-75
2023/03/13 02:55:57;;;;;;;6.53;2.83;;;;;;;0.31;75.75;94977.41;5153282;27;20580;-76
2023/03/13 02:58:25;;;;;;;3.13;2.17;;;;;;;0.12;75.79;94973.53;5140823;27;20212;-75
2023/03/13 03:00:52;;;;;;;3.78;2.28;;;;;;;0.14;76.20;94976.72;5146743;27;20197;-76
2023/03/13 03:03:19;;;;;;;4.97;2.85;;;;;;;0.19;75.79;94982.09;5144850;27;20204;-76
2023/03/13 03:05:45;;;;;;;5.75;2.70;;;;;;;0.10;75.94;94972.97;5147599;27;20596;-76
2023/03/13 03:08:12;;;;;;;3.55;2.10;;;;;;;0.11;76.35;94978.03;5145134;27;20257;-76
2023/03/13 03:10:39;;;;;;;4.00;2.47;;;;;;;0.04;75.00;94972.13;5153418;27;20200;-76
2023/03/13 03:13:07;;;;;;;4.75;2.38;;;;;;;-0.20;75.10;94979.63;5140190;27;20308;-76
2023/03/13 03:15:34;;;;;;;4.18;2.55;;;;;;;-0.23;74.85;94974.78;5138716;27;20200;-76
2023/03/13 03:18:00;;;;;;;7.55;4.95;;;;;;;-0.16;76.22;94987.91;5152854;27;20236;-75
2023/03/13 03:20:27;;;;;;;8.10;4.88;;;;;;;-0.29;77.18;94999.78;5146483;27;20196;-76
2023/03/13 03:22:54;;;;;;;9.23;4.85;;;;;;;-0.54;78.97;94991.47;5145744;27;20200;-76
2023/03/13 03:25:21;;;;;;;7.97;5.22;;;;;;;-0.56;78.75;94998.94;5138944;27;20224;-76
2023/03/13 03:27:47;;;;;;;13.15;7.43;;;;;;;-0.76;78.96;95015.44;5138631;27;20196;-77
2023/03/13 03:30:16;;;;;;;11.23;6.85;;;;;;;-0.83;78.78;95020.16;5132152;27;20204;-76
2023/03/13 03:32:42;;;;;;;10.43;7.07;;;;;;;-0.91;78.59;95021.38;5145805;27;20762;-76
2023/03/13 03:35:09;;;;;;;8.70;5.72;;;;;;;-0.94;78.27;95031.69;5139886;27;20200;-75
2023/03/13 03:37:36;;;;;;;13.02;7.15;;;;;;;-1.03;79.09;95031.31;5152409;27;20269;-76
2023/03/13 03:40:04;;;;;;;10.65;6.93;;;;;;;-1.04;79.17;95034.22;5145087;27;20205;-75
2023/03/13 03:42:31;;;;;;;9.88;6.97;;;;;;;-1.03;79.76;95031.31;5145551;27;20196;-75
2023/03/13 03:44:58;;;;;;;12.80;6.93;;;;;;;-0.99;81.32;95032.44;5132024;27;20205;-76
2023/03/13 03:47:26;;;;;;;10.05;6.95;;;;;;;-0.90;80.28;95046.09;5147278;27;20256;-76
2023/03/13 03:49:53;;;;;;;13.25;7.38;;;;;;;-1.12;80.67;95056.72;5152487;27;20204;-75
2023/03/13 03:52:19;;;;;;;12.70;7.53;;;;;;;-1.17;80.52;95053.97;5137901;27;20220;-75
2023/03/13 03:54:46;;;;;;;13.32;8.02;;;;;;;-1.22;80.86;95048.56;5143589;27;20228;-75
2023/03/13 03:57:13;;;;;;;12.85;7.90;;;;;;;-1.14;80.76;95051.63;5133770;27;20201;-75
2023/03/13 03:59:39;;;;;;;13.63;8.57;;;;;;;-1.11;81.55;95058.31;5143312;27;20201;-75
2023/03/13 04:02:06;;;;;;;11.02;6.88;;;;;;;-0.97;81.77;95064.09;5147822;27;20201;-76
2023/03/13 04:04:34;;;;;;;15.50;9.40;;;;;;;-1.08;82.08;95061.28;5152146;27;20208;-77
2023/03/13 04:07:01;;;;;;;15.18;9.45;;;;;;;-1.15;82.51;95062.50;5138680;27;20209;-75
2023/03/13 04:09:28;;;;;;;13.48;8.20;;;;;;;-1.10;83.35;95063.41;5151523;27;20248;-76
2023/03/13 04:11:55;;;;;;;14.07;9.40;;;;;;;-1.11;82.75;95071.63;5137844;27;20207;-77
2023/03/13 04:14:21;;;;;;;34.97;16.52;;;;;;;-1.15;83.04;95081.91;5141635;27;20281;-76
2023/03/13 04:16:48;;;;;;;28.63;14.05;;;;;;;-1.18;83.33;95092.22;5147756;27;20236;-75
2023/03/13 04:19:15;;;;;;;21.73;11.70;;;;;;;-1.18;83.04;95084.25;5140975;27;20204;-76
2023/03/13 04:21:43;;;;;;;19.58;11.35;;;;;;;-1.17;82.02;95088.53;5148387;27;20216;-76
2023/03/13 04:24:10;;;;;;;35.95;19.05;;;;;;;-1.11;82.59;95095.53;5151514;27;20220;-76
2023/03/13 04:26:36;;;;;;;24.95;12.23;;;;;;;-1.03;82.89;95089.78;5137464;27;20234;-76
2023/03/13 04:29:05;;;;;;;19.77;10.55;;;;;;;-0.98;82.11;95097.84;5146438;27;20256;-75
2023/03/13 04:31:32;;;;;;;18.85;12.15;;;;;;;-0.90;82.00;95104.59;5137413;27;20722;-76
2023/03/13 04:33:58;;;;;;;19.60;12.35;;;;;;;-0.81;83.55;95111.91;5150387;27;20304;-76
2023/03/13 04:36:25;;;;;;;16.85;10.45;;;;;;;-0.68;83.73;95107.31;5132520;27;20217;-76
2023/03/13 04:38:53;;;;;;;16.25;10.20;;;;;;;-0.59;83.34;95111.16;5142162;27;20204;-76
2023/03/13 04:41:20;;;;;;;15.77;9.77;;;;;;;-0.55;83.27;95120.25;5150901;27;20552;-76
2023/03/13 04:43:47;;;;;;;16.02;9.73;;;;;;;-0.46;83.18;95127.56;5147182;27;20262;-78
2023/03/13 04:46:13;;;;;;;17.15;10.30;;;;;;;-0.52;82.76;95127.72;5137081;27;20200;-78
2023/03/13 04:48:40;;;;;;;15.10;9.13;;;;;;;-0.41;82.11;95124.19;5140620;27;20250;-78
2023/03/13 04:51:07;;;;;;;12.80;5.78;;;;;;;-0.41;82.38;95129.50;5147618;27;20223;-77
2023/03/13 04:53:34;;;;;;;8.88;5.03;;;;;;;-0.40;82.69;95131.06;5142838;27;20224;-77
2023/03/13 04:56:02;;;;;;;10.48;4.05;;;;;;;-0.19;82.34;95134.81;5133966;27;20687;-76
2023/03/13 04:58:29;;;;;;;10.43;5.13;;;;;;;-0.09;80.67;95138.41;5139782;27;20197;-77
2023/03/13 05:00:55;;;;;;;8.18;4.32;;;;;;;0.02;79.96;95126.00;5131540;27;20246;-77
2023/03/13 05:03:22;;;;;;;8.15;4.63;;;;;;;0.19;80.21;95133.91;5147183;27;20199;-77
2023/03/13 05:05:49;;;;;;;13.73;6.40;;;;;;;1.04;79.10;95125.09;5139450;27;20192;-75
2023/03/13 05:08:16;;;;;;;9.05;5.20;;;;;;;2.44;74.34;95127.94;5147601;27;20196;-78
2023/03/13 05:10:43;;;;;;;8.10;4.63;;;;;;;3.51;69.78;95118.84;5148260;27;20245;-79
2023/03/13 05:13:11;;;;;;;7.25;4.20;;;;;;;4.19;65.50;95115.69;5151124;27;20196;-76
2023/03/13 05:15:38;;;;;;;9.02;3.92;;;;;;;4.52;61.94;95101.53;5149483;27;20212;-77
2023/03/13 05:18:05;;;;;;;17.33;5.65;;;;;;;4.64;62.16;95107.38;5146072;27;20839;-77
2023/03/13 05:20:32;;;;;;;12.43;4.68;;;;;;;5.16;61.13;95116.66;5142283;27;20197;-77
2023/03/13 05:22:58;;;;;;;8.55;4.88;;;;;;;6.13;58.02;95116.53;5142202;27;20224;-77
2023/03/13 05:25:26;;;;;;;7.18;4.10;;;;;;;7.01;55.72;95115.84;5145886;27;20204;-77
2023/03/13 05:27:53;;;;;;;12.32;5.85;;;;;;;7.38;54.04;95123.06;5141542;27;20199;-78
2023/03/13 05:30:22;;;;;;;9.57;5.75;;;;;;;8.06;52.24;95119.69;5145201;27;20193;-79
2023/03/13 05:32:48;;;;;;;11.50;6.07;;;;;;;8.45;51.10;95118.44;5134460;27;20197;-77
2023/03/13 05:35:15;;;;;;;15.15;6.35;;;;;;;8.95;48.56;95119.22;5137304;27;20806;-77
2023/03/13 05:37:44;;;;;;;14.48;4.72;;;;;;;8.27;48.56;95130.88;5150260;27;20204;-77
2023/03/13 05:40:12;;;;;;;8.85;4.75;;;;;;;8.51;48.83;95131.50;5141180;27;20232;-77
2023/03/13 05:42:39;;;;;;;10.55;5.53;;;;;;;8.82;47.71;95126.25;5143624;27;20209;-77
2023/03/13 05:45:08;;;;;;;8.10;5.00;;;;;;;8.93;47.63;95134.94;5139021;27;20200;-76
2023/03/13 05:47:37;;;;;;;11.73;5.70;;;;;;;9.52;45.98;95127.59;5136694;27;20658;-77
2023/03/13 05:50:06;;;;;;;9.85;5.40;;;;;;;10.27;44.65;95124.03;5150425;27;21230;-76
2023/03/13 05:52:33;;;;;;;12.85;5.50;;;;;;;10.46;44.02;95124.56;5136083;27;20192;-77
2023/03/13 05:55:00;;;;;;;12.52;7.53;;;;;;;11.05;42.93;95125.00;5138597;27;20627;-77
2023/03/13 05:57:27;;;;;;;9.15;5.70;;;;;;;11.32;41.67;95130.13;5143421;27;20200;-77
2023/03/13 05:59:54;;;;;;;11.25;5.15;;;;;;;10.78;41.85;95133.44;5140589;27;20200;-77
2023/03/13 06:02:21;;;;;;;10.25;5.80;;;;;;;10.59;42.58;95139.91;5136143;27;20260;-77
2023/03/13 06:04:49;;;;;;;10.65;5.30;;;;;;;9.73;42.99;95138.69;5138405;27;20197;-77
2023/03/13 06:07:16;;;;;;;12.32;6.25;;;;;;;10.17;43.06;95140.53;5147971;27;20790;-77
2023/03/13 06:09:42;;;;;;;11.60;5.30;;;;;;;11.03;40.66;95135.38;5138038;27;20197;-77
2023/03/13 06:12:10;;;;;;;9.32;5.32;;;;;;;11.71;39.46;95137.25;5143028;27;20731;-77
2023/03/13 06:14:37;;;;;;;7.72;4.70;;;;;;;11.34;40.06;95138.72;5141419;27;20260;-77
2023/03/13 06:17:04;;;;;;;7.38;4.65;;;;;;;11.81;39.41;95133.44;5136214;27;20318;-78
2023/03/13 06:19:31;;;;;;;7.60;5.00;;;;;;;11.23;39.50;95136.66;5137376;27;20200;-77
2023/03/13 06:22:00;;;;;;;9.60;5.22;;;;;;;10.77;40.21;95139.97;5148918;27;20319;-76
2023/03/13 06:24:26;;;;;;;8.35;4.78;;;;;;;11.16;40.14;95137.13;5149677;27;20211;-77
2023/03/13 06:26:53;;;;;;;8.02;4.63;;;;;;;10.78;40.18;95146.97;5149750;27;20204;-78
2023/03/13 06:29:20;;;;;;;9.73;4.65;;;;;;;11.66;38.94;95144.75;5149634;27;20196;-79
2023/03/13 06:31:47;;;;;;;10.13;5.32;;;;;;;11.74;39.01;95146.69;5135910;27;20204;-79
2023/03/13 06:34:14;;;;;;;8.65;5.15;;;;;;;11.86;38.62;95143.34;5136086;27;20277;-80
2023/03/13 06:36:41;;;;;;;12.43;5.07;;;;;;;12.76;37.78;95141.22;5129170;28;20266;-80
2023/03/13 06:39:09;;;;;;;6.68;4.68;;;;;;;10.90;38.84;95128.19;5128832;27;20709;-81
2023/03/13 06:41:36;;;;;;;7.93;5.40;;;;;;;10.14;39.65;95130.31;5149897;27;20204;-80
2023/03/13 06:44:02;;;;;;;7.78;4.60;;;;;;;9.45;40.98;95128.03;5134734;27;20201;-80
2023/03/13 06:46:30;;;;;;;9.45;4.85;;;;;;;10.60;40.19;95122.53;5136258;27;20283;-79
2023/03/13 06:48:57;;;;;;;6.82;4.75;;;;;;;11.48;38.42;95124.22;5135265;27;20201;-79
2023/03/13 06:51:25;;;;;;;7.05;4.22;;;;;;;11.54;38.60;95120.19;5149250;27;20220;-79
2023/03/13 06:53:52;;;;;;;8.02;4.68;;;;;;;10.04;39.89;95130.59;5137957;27;20288;-79
2023/03/13 06:56:20;;;;;;;11.07;3.83;;;;;;;9.90;40.92;95141.50;5149343;27;20200;-79
2023/03/13 06:58:47;;;;;;;9.65;4.20;;;;;;;10.99;39.41;95128.97;5151884;27;20288;-78
2023/03/13 07:01:16;;;;;;;7.53;4.75;;;;;;;9.92;41.42;95131.19;5139900;27;20193;-78
2023/03/13 07:03:44;;;;;;;9.93;4.93;;;;;;;11.85;38.52;95115.38;5135908;27;20200;-78
2023/03/13 07:06:12;;;;;;;7.57;4.60;;;;;;;11.67;38.00;95119.22;5143791;27;20197;-78
2023/03/13 07:08:39;;;;;;;7.28;5.05;;;;;;;11.65;38.48;95124.16;5148781;27;20288;-76
2023/03/13 07:11:08;;;;;;;7.53;6.07;;;;;;;10.79;39.21;95119.56;5153740;27;20227;-77
2023/03/13 07:13:37;;;;;;;6.68;3.88;;;;;;;9.73;40.79;95123.25;5153193;27;20212;-76
2023/03/13 07:16:06;;;;;;;7.68;4.65;;;;;;;8.51;43.73;95142.31;5152786;27;20211;-77
2023/03/13 07:18:34;;;;;;;7.03;4.13;;;;;;;8.36;43.52;95145.31;5138703;27;20284;-77
2023/03/13 07:21:04;;;;;;;7.07;4.22;;;;;;;8.00;44.68;95136.28;5141614;27;20607;-77
2023/03/13 07:23:31;;;;;;;9.02;6.57;;;;;;;8.15;43.50;95134.09;5150539;27;20228;-77
2023/03/13 07:26:00;;;;;;;6.90;4.20;;;;;;;7.63;45.17;95124.53;5140286;27;20216;-78
2023/03/13 07:28:28;;;;;;;8.43;4.38;;;;;;;6.92;46.00;95133.78;5147925;27;20209;-77
2023/03/13 07:31:04;;;;;;;4.63;2.75;;;;;;;6.44;47.09;95138.44;5139991;27;20617;-76
2023/03/13 07:33:30;;;;;;;8.07;2.92;;;;;;;6.56;46.97;95135.38;5132002;27;20189;-77
2023/03/13 07:35:57;;;;;;;6.15;3.55;;;;;;;6.65;46.80;95129.03;5145448;27;20232;-77
2023/03/13 07:38:24;;;;;;;8.70;3.78;;;;;;;7.07;45.97;95130.03;5140001;27;20192;-78
2023/03/13 07:40:52;;;;;;;6.60;3.90;;;;;;;7.09;45.96;95134.06;5137947;27;20209;-79
2023/03/13 07:43:19;;;;;;;6.90;4.20;;;;;;;7.14;45.57;95136.66;5140115;27;20552;-78
2023/03/13 07:45:51;;;;;;;11.45;6.82;;;;;;;7.37;46.40;95134.16;5120310;27;20240;-78
2023/03/13 07:48:20;;;;;;;9.45;4.60;;;;;;;7.35;47.04;95136.34;5151904;27;20287;-78
2023/03/13 07:50:46;;;;;;;16.10;5.20;;;;;;;7.32;46.51;95131.53;5138513;27;20228;-78
2023/03/13 07:53:19;;;;;;;7.97;5.13;;;;;;;7.82;46.34;95136.03;5143000;27;20681;-78
2023/03/13 07:55:52;;;;;;;12.07;6.35;;;;;;;6.12;50.44;95135.63;5145620;27;20225;-79
2023/03/13 07:58:19;;;;;;;10.82;6.85;;;;;;;5.94;52.00;95139.84;5142994;27;20188;-78
2023/03/13 08:00:46;;;;;;;19.08;7.65;;;;;;;6.00;52.31;95134.16;5139642;27;20196;-78
2023/03/13 08:03:13;;;;;;;28.42;6.40;;;;;;;6.58;51.30;95117.00;5140825;27;20250;-78
2023/03/13 08:05:41;;;;;;;11.45;5.88;;;;;;;6.02;51.03;95123.09;5145521;27;20261;-77
2023/03/13 08:08:08;;;;;;;14.32;6.30;;;;;;;5.60;53.00;95121.88;5142434;27;20199;-78
2023/03/13 08:10:35;;;;;;;12.90;6.75;;;;;;;6.55;51.73;95118.41;5137586;27;20211;-77
2023/03/13 08:13:02;;;;;;;9.05;5.43;;;;;;;6.23;51.34;95120.97;5152417;27;20257;-76
2023/03/13 08:15:29;;;;;;;11.35;6.50;;;;;;;5.92;52.38;95120.50;5132757;27;20232;-78
2023/03/13 08:17:55;;;;;;;10.90;5.93;;;;;;;5.80;52.34;95112.03;5142797;27;20283;-79
2023/03/13 08:20:22;;;;;;;8.70;4.95;;;;;;;5.89;52.52;95115.72;5138322;27;20204;-78
2023/03/13 08:22:50;;;;;;;11.60;6.38;;;;;;;5.82;53.07;95112.53;5151734;27;21008;-78
2023/03/13 08:25:17;;;;;;;11.75;7.28;;;;;;;6.27;52.22;95122.00;5145963;27;20300;-78
2023/03/13 08:27:44;;;;;;;13.10;7.05;;;;;;;6.31;53.11;95123.81;5144234;27;20216;-78
2023/03/13 08:30:12;;;;;;;11.23;6.63;;;;;;;6.59;51.38;95115.91;5140463;27;20193;-78
2023/03/13 08:32:39;;;;;;;12.50;7.85;;;;;;;6.86;51.00;95117.97;5145311;27;20196;-79
2023/03/13 08:35:06;;;;;;;10.07;6.13;;;;;;;7.14;49.85;95120.50;5130699;27;20267;-78
2023/03/13 08:37:33;;;;;;;12.80;5.70;;;;;;;7.40;49.60;95117.38;5130179;27;20201;-79
2023/03/13 08:40:02;;;;;;;9.43;6.50;;;;;;;7.69;49.62;95126.03;5137840;27;20244;-79
2023/03/13 08:42:28;;;;;;;14.93;6.18;;;;;;;7.80;49.07;95127.44;5137061;27;20196;-79
2023/03/13 08:44:55;;;;;;;12.63;8.02;;;;;;;7.56;49.52;95126.81;5144256;27;20672;-79
2023/03/13 08:47:22;;;;;;;12.02;6.10;;;;;;;6.85;50.57;95122.53;5144813;27;20271;-79
2023/03/13 08:49:49;;;;;;;10.05;5.85;;;;;;;6.60;51.20;95125.59;5138327;27;20246;-78
2023/03/13 08:52:15;;;;;;;17.80;9.95;;;;;;;6.26;52.65;95123.09;5137220;27;20216;-77
2023/03/13 08:54:42;;;;;;;15.88;6.70;;;;;;;6.59;53.79;95118.63;5143377;27;20225;-77
2023/03/13 08:57:10;;;;;;;11.23;5.95;;;;;;;7.10;51.37;95114.09;5131364;27;20280;-78
2023/03/13 08:59:37;;;;;;;10.52;6.78;;;;;;;6.92;51.95;95116.81;5130596;27;20261;-79
2023/03/13 09:02:04;;;;;;;12.90;7.28;;;;;;;7.32;51.46;95109.97;5144900;27;20208;-79
2023/03/13 09:04:31;;;;;;;8.15;5.82;;;;;;;7.41;49.94;95116.28;5130088;27;20216;-78
2023/03/13 09:06:58;;;;;;;6.68;4.22;;;;;;;6.94;50.11;95120.00;5130071;27;20213;-79
2023/03/13 09:09:24;;;;;;;7.05;3.95;;;;;;;6.88;51.07;95113.88;5137980;27;20731;-79
2023/03/13 09:11:51;;;;;;;9.70;5.82;;;;;;;6.74;50.84;95121.09;5135670;27;20201;-78
2023/03/13 09:14:19;;;;;;;11.23;7.07;;;;;;;6.85;50.79;95111.78;5140011;27;20204;-79
2023/03/13 09:16:47;;;;;;;9.70;6.03;;;;;;;7.28;49.98;95108.97;5149350;27;20630;-78
2023/03/13 09:19:14;;;;;;;12.43;7.00;;;;;;;7.53;52.86;95110.41;5139507;27;20233;-80
2023/03/13 09:21:41;;;;;;;16.77;7.63;;;;;;;7.72;48.61;95106.56;5137632;27;20223;-79
2023/03/13 09:24:08;;;;;;;13.40;6.88;;;;;;;7.55;48.83;95095.56;5150931;27;20218;-79
2023/03/13 09:26:35;;;;;;;9.13;6.38;;;;;;;7.24;49.10;95097.19;5146633;27;20261;-79
2023/03/13 09:29:02;;;;;;;17.27;7.75;;;;;;;7.53;49.69;95095.03;5134266;27;20205;-79
2023/03/13 09:31:32;;;;;;;15.57;7.60;;;;;;;7.85;49.47;95102.28;5134701;27;20204;-80
2023/03/13 09:33:59;;;;;;;9.50;5.07;;;;;;;7.92;48.26;95104.63;5139276;27;20204;-78
2023/03/13 09:36:26;;;;;;;7.78;5.65;;;;;;;7.49;48.90;95102.94;5143403;27;20228;-78
2023/03/13 09:38:55;;;;;;;12.55;7.65;;;;;;;8.07;48.03;95104.28;5141520;27;20714;-78
2023/03/13 09:41:26;;;;;;;15.20;8.10;;;;;;;8.30;47.09;95107.91;5144957;27;20253;-79
2023/03/13 09:44:00;;;;;;;13.88;8.32;;;;;;;8.07;48.35;95109.69;5142620;27;20196;-79
2023/03/13 09:46:38;;;;;;;12.52;7.15;;;;;;;8.41;48.47;95099.31;5129905;27;20196;-80
2023/03/13 09:49:13;;;;;;;11.65;6.70;;;;;;;8.41;48.22;95098.53;5143082;27;20654;-79
2023/03/13 09:51:43;;;;;;;14.90;10.80;;;;;;;8.21;47.03;95099.69;5139615;27;20199;-77
2023/03/13 09:54:22;;;;;;;16.25;10.13;;;;;;;8.12;47.30;95096.91;5145601;27;20253;-79
2023/03/13 09:56:55;;;;;;;12.38;5.88;;;;;;;7.94;47.72;95097.00;5142478;27;20790;-77
2023/03/13 09:59:28;;;;;;;13.13;6.50;;;;;;;7.91;47.40;95094.91;5136743;27;20192;-79
2023/03/13 10:01:58;;;;;;;12.00;5.60;;;;;;;8.06;47.00;95089.22;5136500;27;20189;-80
2023/03/13 10:04:34;;;;;;;10.77;6.13;;;;;;;7.72;47.64;95086.91;5142164;27;20197;-77
2023/03/13 10:07:02;;;;;;;12.07;7.25;;;;;;;7.88;48.26;95090.13;5143902;27;20205;-79
2023/03/13 10:09:31;;;;;;;8.40;5.38;;;;;;;8.58;46.39;95092.50;5139857;27;20207;-79
2023/03/13 10:12:06;;;;;;;13.18;6.95;;;;;;;8.55;45.89;95086.59;5145923;27;20193;-80
2023/03/13 10:14:42;;;;;;;12.18;5.57;;;;;;;8.28;46.74;95078.50;5129153;28;20185;-79
2023/03/13 10:17:20;;;;;;;16.27;5.20;;;;;;;8.31;46.89;95067.13;5129685;28;20243;-78
2023/03/13 10:19:54;;;;;;;9.55;5.63;;;;;;;8.29;47.89;95061.22;5130800;27;20250;-78
2023/03/13 10:22:25;;;;;;;12.85;7.07;;;;;;;8.40;46.26;95053.72;5149458;27;20219;-77
2023/03/13 10:24:57;;;;;;;16.10;7.55;;;;;;;8.33;46.95;95054.16;5136356;27;20196;-80
2023/03/13 10:27:23;;;;;;;10.50;6.63;;;;;;;8.17;47.18;95055.53;5139822;27;20281;-83
2023/03/13 10:29:50;;;;;;;11.57;7.25;;;;;;;8.08;47.37;95046.53;5133220;27;20712;-79
2023/03/13 10:32:19;;;;;;;15.38;7.85;;;;;;;8.66;48.55;95037.75;5130161;27;20205;-77
2023/03/13 10:34:53;;;;;;;14.55;6.93;;;;;;;9.27;46.09;95024.41;5150476;27;20220;-79
2023/03/13 10:37:24;;;;;;;10.85;6.35;;;;;;;9.96;45.35;95019.28;5141548;27;20193;-79
2023/03/13 10:39:52;;;;;;;13.10;7.28;;;;;;;9.95;43.72;95023.09;5138524;27;20203;-77
2023/03/13 10:42:23;;;;;;;12.13;7.05;;;;;;;10.49;43.45;95017.53;5154238;27;20212;-78
2023/03/13 10:44:56;;;;;;;13.90;8.45;;;;;;;10.56;43.01;95015.91;5139718;27;20223;-77
2023/03/13 10:47:24;;;;;;;11.95;7.45;;;;;;;10.56;41.62;95009.72;5140056;27;20284;-78
2023/03/13 10:49:55;;;;;;;13.13;7.35;;;;;;;10.44;43.33;95010.34;5153663;27;20224;-78
2023/03/13 10:52:42;;;;;;;15.98;6.97;;;;;;;10.50;42.95;95000.97;5151890;27;20192;-79
2023/03/13 10:55:13;;;;;;;13.50;6.85;;;;;;;9.73;43.86;95004.22;5145115;27;20254;-80
2023/03/13 10:57:43;;;;;;;17.90;10.35;;;;;;;10.01;45.89;94999.38;5139717;27;20280;-79
2023/03/13 11:00:29;;;;;;;16.05;10.07;;;;;;;10.89;45.05;94991.06;5140582;27;20189;-78
2023/03/13 11:02:57;;;;;;;16.00;8.18;;;;;;;10.89;45.47;94991.06;5126203;27;20225;-78
2023/03/13 11:05:37;;;;;;;16.50;10.18;;;;;;;11.11;42.65;94993.59;5140539;27;20679;-79
2023/03/13 11:08:18;;;;;;;13.07;9.90;;;;;;;10.65;41.72;94980.72;5142774;27;20972;-78
2023/03/13 11:10:53;;;;;;;13.88;9.90;;;;;;;10.20;43.27;94983.72;5146615;27;20285;-79
2023/03/13 11:13:34;;;;;;;20.30;10.50;;;;;;;9.93;43.05;94965.78;5146702;27;20188;-79
2023/03/13 11:16:19;;;;;;;13.05;9.48;;;;;;;9.69;44.73;94976.22;5143603;27;20599;-78
2023/03/13 11:19:15;;;;;;;17.65;9.95;;;;;;;9.69;44.45;94976.22;5143089;27;20333;-78
2023/03/13 11:21:49;;;;;;;17.15;10.63;;;;;;;10.23;42.83;94968.75;5136393;27;20220;-79
2023/03/13 11:24:24;;;;;;;17.70;10.63;;;;;;;10.25;43.18;94971.94;5141431;27;20192;-79
2023/03/13 11:27:00;;;;;;;14.27;10.15;;;;;;;9.95;43.74;94965.47;5151924;27;20192;-77
2023/03/13 11:29:34;;;;;;;15.57;10.38;;;;;;;10.50;43.16;94956.81;5148606;27;20203;-80
2023/03/13 11:32:05;;;;;;;16.50;10.85;;;;;;;10.08;43.68;94966.47;5140885;27;20249;-80
2023/03/13 11:34:40;;;;;;;16.13;10.43;;;;;;;10.32;44.00;94947.88;5152906;27;20228;-78
2023/03/13 11:37:12;;;;;;;14.52;10.73;;;;;;;10.72;43.38;94942.28;5152916;27;20215;-79
2023/03/13 11:39:50;;;;;;;19.38;11.25;;;;;;;10.78;43.87;94947.25;5148623;27;20728;-79
2023/03/13 11:42:40;;;;;;;15.07;10.32;;;;;;;10.92;41.82;94941.66;5144200;27;20554;-79